VTCC/CNX METAR and TAF weather

Enter ICAO airport designator
Station Type Date Time Source
VTCC METAR 2022/06/29 00:30 UTC NOAA

VTCC 290030Z 00000KT 9999 FEW035 26/23 Q1006 NOSIG


Station Type Date Time Source
VTCC Decoded METAR 2022/06/29 00:30 UTC NOAA

Chiang Mai, Thailand (VTCC) 18-47N 098-59E 314M
Jun 28, 2022 - 08:30 PM EDT / 2022.06.29 0030 UTC
Wind: Calm:0
Visibility: greater than 7 mile(s):0
Sky conditions: mostly clear
Temperature: 78 F (26 C)
Dew Point: 73 F (23 C)
Relative Humidity: 83%
Pressure (altimeter): 29.71 in. Hg (1006 hPa)
ob: VTCC 290030Z 00000KT 9999 FEW035 26/23 Q1006 NOSIG
cycle: 0

Station Type Date Time Source
VTCC TAF 2022/06/28 18:37 UTC NOAA

TAF VTCC 281700Z 2818/2924 21005KT 9999 SCT035
BECMG 2907/2909 27005KT
TEMPO 2909/2915 27015G25KT 4000 TSRA FEW025CB BKN035

Example: see airport list